Time,TemperatureF,DewpointF,PressureIn,WindDirection,WindDirectionDegrees,WindSpeedMPH,WindSpeedGustMPH,Humidity,HourlyPrecipIn,Conditions,Clouds,dailyrainin,SoftwareType,DateUTC
2013-01-10 00:04:00,26.3,25.3,24.95,WNW,301,0.0,-999.0,96,-99.99,,,-99.99,dwt +perl,2013-01-10 08:04:00,
2013-01-10 00:09:00,26.0,24.8,24.94,WSW,256,0.0,-999.0,95,-99.99,,,-99.99,dwt +perl,2013-01-10 08:09:00,
2013-01-10 00:14:00,25.8,24.8,24.95,WSW,237,0.0,-999.0,96,-99.99,,,-99.99,dwt +perl,2013-01-10 08:14:00,
2013-01-10 00:19:00,25.9,24.9,24.95,WNW,302,0.0,-999.0,96,-99.99,,,-99.99,dwt +perl,2013-01-10 08:19:00,
2013-01-10 00:24:00,25.8,24.8,24.95,WNW,302,0.0,-999.0,96,-99.99,,,-99.99,dwt +perl,2013-01-10 08:24:00,
2013-01-10 00:29:00,26.0,25.0,24.95,WNW,298,0.0,-999.0,96,-99.99,,,-99.99,dwt +perl,2013-01-10 08:29:00,
2013-01-10 00:34:00,26.1,25.1,24.95,NW,307,0.0,-999.0,96,-99.99,,,-99.99,dwt +perl,2013-01-10 08:34:00,
2013-01-10 00:39:00,26.1,25.1,24.95,NW,307,0.0,-999.0,96,-99.99,,,-99.99,dwt +perl,2013-01-10 08:39:00,
2013-01-10 00:44:00,26.0,25.0,24.95,NW,307,0.0,-999.0,96,-99.99,,,-99.99,dwt +perl,2013-01-10 08:44:00,
2013-01-10 00:49:00,25.7,24.5,24.95,NW,307,0.0,-999.0,95,-99.99,,,-99.99,dwt +perl,2013-01-10 08:49:00,
2013-01-10 00:54:00,25.7,24.5,24.96,NW,307,0.0,-999.0,95,-99.99,,,-99.99,dwt +perl,2013-01-10 08:54:00,
2013-01-10 00:59:00,25.7,24.5,24.95,NW,307,0.0,-999.0,95,-99.99,,,-99.99,dwt +perl,2013-01-10 08:59:00,
2013-01-10 01:04:00,25.7,24.5,24.96,NW,307,0.0,-999.0,95,-99.99,,,-99.99,dwt +perl,2013-01-10 09:04:00,
2013-01-10 01:09:00,25.7,24.5,24.96,NW,307,0.0,-999.0,95,-99.99,,,-99.99,dwt +perl,2013-01-10 09:09:00,
2013-01-10 01:12:00,25.5,24.3,24.96,NW,307,0.0,-999.0,95,-99.99,,,-99.99,dwt +perl,2013-01-10 09:12:00,
2013-01-10 01:14:00,25.6,24.4,24.96,NW,307,0.0,-999.0,95,-99.99,,,-99.99,dwt +perl,2013-01-10 09:14:00,
2013-01-10 01:19:00,25.5,24.3,24.96,NW,307,0.0,-999.0,95,-99.99,,,-99.99,dwt +perl,2013-01-10 09:19:00,
2013-01-10 01:29:00,25.1,23.9,24.96,NW,307,0.0,-999.0,95,-99.99,,,-99.99,dwt +perl,2013-01-10 09:29:00,
2013-01-10 01:34:00,25.1,23.9,24.96,NW,307,0.0,-999.0,95,-99.99,,,-99.99,dwt +perl,2013-01-10 09:34:00,
2013-01-10 01:39:00,24.9,23.7,24.96,NW,307,0.0,-999.0,95,-99.99,,,-99.99,dwt +perl,2013-01-10 09:39:00,
2013-01-10 01:44:00,24.8,23.6,24.96,WNW,303,0.0,-999.0,95,-99.99,,,-99.99,dwt +perl,2013-01-10 09:44:00,
2013-01-10 01:49:00,24.9,23.7,24.96,SW,230,0.0,-999.0,95,-99.99,,,-99.99,dwt +perl,2013-01-10 09:49:00,
2013-01-10 01:54:00,25.0,23.8,24.96,West,268,0.0,-999.0,95,-99.99,,,-99.99,dwt +perl,2013-01-10 09:54:00,
2013-01-10 01:59:00,25.2,24.2,24.97,SW,230,0.0,-999.0,96,-99.99,,,-99.99,dwt +perl,2013-01-10 09:59:00,
2013-01-10 02:04:00,25.4,24.4,24.96,WNW,286,0.0,-999.0,96,-99.99,,,-99.99,dwt +perl,2013-01-10 10:04:00,
2013-01-10 02:09:00,25.5,24.5,24.97,WNW,297,0.0,-999.0,96,-99.99,,,-99.99,dwt +perl,2013-01-10 10:09:00,
2013-01-10 02:14:00,25.5,24.5,24.97,WNW,289,0.0,-999.0,96,-99.99,,,-99.99,dwt +perl,2013-01-10 10:14:00,
2013-01-10 02:19:00,25.1,23.9,24.97,NW,305,0.0,-999.0,95,-99.99,,,-99.99,dwt +perl,2013-01-10 10:19:00,
2013-01-10 02:24:00,25.0,23.8,24.97,WSW,241,0.0,-999.0,95,-99.99,,,-99.99,dwt +perl,2013-01-10 10:24:00,
2013-01-10 02:29:00,25.2,24.2,24.97,SW,233,0.0,-999.0,96,-99.99,,,-99.99,dwt +perl,2013-01-10 10:29:00,
2013-01-10 02:34:00,25.4,24.4,24.97,SW,233,0.0,-999.0,96,-99.99,,,-99.99,dwt +perl,2013-01-10 10:34:00,
2013-01-10 02:39:00,25.5,24.3,24.97,West,260,0.0,-999.0,95,-99.99,,,-99.99,dwt +perl,2013-01-10 10:39:00,
2013-01-10 02:44:00,25.5,24.3,24.97,WNW,303,0.0,-999.0,95,-99.99,,,-99.99,dwt +perl,2013-01-10 10:44:00,
2013-01-10 02:49:00,25.2,24.0,24.97,NW,305,0.0,-999.0,95,-99.99,,,-99.99,dwt +perl,2013-01-10 10:49:00,
2013-01-10 02:54:00,25.3,24.1,24.98,NW,304,0.0,-999.0,95,-99.99,,,-99.99,dwt +perl,2013-01-10 10:54:00,
2013-01-10 02:59:00,25.4,24.4,24.98,NW,304,0.0,-999.0,96,-99.99,,,-99.99,dwt +perl,2013-01-10 10:59:00,
2013-01-10 03:04:00,25.3,24.1,24.98,NW,305,0.0,-999.0,95,-99.99,,,-99.99,dwt +perl,2013-01-10 11:04:00,
2013-01-10 03:09:00,25.2,24.0,24.98,NW,305,0.0,-999.0,95,-99.99,,,-99.99,dwt +perl,2013-01-10 11:09:00,
2013-01-10 03:14:00,25.3,24.3,24.98,NW,305,0.0,-999.0,96,-99.99,,,-99.99,dwt +perl,2013-01-10 11:14:00,
2013-01-10 03:19:00,25.3,24.3,24.98,NW,305,0.0,-999.0,96,-99.99,,,-99.99,dwt +perl,2013-01-10 11:19:00,
2013-01-10 03:24:00,24.9,23.7,24.98,NW,305,0.0,-999.0,95,-99.99,,,-99.99,dwt +perl,2013-01-10 11:24:00,
2013-01-10 03:29:00,24.6,23.4,24.98,NW,305,0.0,-999.0,95,-99.99,,,-99.99,dwt +perl,2013-01-10 11:29:00,
2013-01-10 03:34:00,24.8,23.6,24.99,NW,305,0.0,-999.0,95,-99.99,,,-99.99,dwt +perl,2013-01-10 11:34:00,
2013-01-10 03:39:00,24.7,23.5,24.99,NW,305,0.0,-999.0,95,-99.99,,,-99.99,dwt +perl,2013-01-10 11:39:00,
2013-01-10 03:44:00,24.8,23.6,24.99,NW,305,0.0,-999.0,95,-99.99,,,-99.99,dwt +perl,2013-01-10 11:44:00,
2013-01-10 03:49:00,25.0,23.8,24.99,NW,310,0.0,-999.0,95,-99.99,,,-99.99,dwt +perl,2013-01-10 11:49:00,
2013-01-10 03:54:00,24.9,23.7,24.99,NW,310,0.0,-999.0,95,-99.99,,,-99.99,dwt +perl,2013-01-10 11:54:00,
2013-01-10 03:59:00,24.6,23.4,24.99,SW,232,0.0,-999.0,95,-99.99,,,-99.99,dwt +perl,2013-01-10 11:59:00,
2013-01-10 04:04:00,24.4,23.2,24.99,NW,308,0.0,-999.0,95,-99.99,,,-99.99,dwt +perl,2013-01-10 12:04:00,
2013-01-10 04:09:00,24.3,23.1,24.99,NW,308,0.0,-999.0,95,-99.99,,,-99.99,dwt +perl,2013-01-10 12:09:00,
2013-01-10 04:14:00,24.4,23.2,24.99,SW,231,0.0,-999.0,95,-99.99,,,-99.99,dwt +perl,2013-01-10 12:14:00,
2013-01-10 04:19:00,24.4,23.2,24.99,NW,308,0.0,-999.0,95,-99.99,,,-99.99,dwt +perl,2013-01-10 12:19:00,
2013-01-10 04:24:00,24.4,23.2,24.99,NW,308,0.0,-999.0,95,-99.99,,,-99.99,dwt +perl,2013-01-10 12:24:00,
2013-01-10 04:29:00,24.5,23.3,24.99,NW,308,0.0,-999.0,95,-99.99,,,-99.99,dwt +perl,2013-01-10 12:29:00,
2013-01-10 04:34:00,24.5,23.3,24.99,NW,312,0.0,-999.0,95,-99.99,,,-99.99,dwt +perl,2013-01-10 12:34:00,
2013-01-10 04:39:00,24.5,23.3,24.99,NW,312,0.0,-999.0,95,-99.99,,,-99.99,dwt +perl,2013-01-10 12:39:00,
2013-01-10 04:44:00,24.5,23.3,24.99,NW,312,0.0,-999.0,95,-99.99,,,-99.99,dwt +perl,2013-01-10 12:44:00,
2013-01-10 04:49:00,24.6,23.4,24.99,NW,312,0.0,-999.0,95,-99.99,,,-99.99,dwt +perl,2013-01-10 12:49:00,
2013-01-10 04:54:00,24.8,23.6,24.99,NW,312,0.0,-999.0,95,-99.99,,,-99.99,dwt +perl,2013-01-10 12:54:00,
2013-01-10 04:59:00,24.8,23.6,25.00,NW,312,0.0,-999.0,95,-99.99,,,-99.99,dwt +perl,2013-01-10 12:59:00,
2013-01-10 05:04:00,24.8,23.6,25.00,NW,312,0.0,-999.0,95,-99.99,,,-99.99,dwt +perl,2013-01-10 13:04:00,
2013-01-10 05:09:00,24.9,23.7,25.00,NW,312,0.0,-999.0,95,-99.99,,,-99.99,dwt +perl,2013-01-10 13:09:00,
2013-01-10 05:14:00,24.9,23.7,25.00,NW,312,0.0,-999.0,95,-99.99,,,-99.99,dwt +perl,2013-01-10 13:14:00,
2013-01-10 05:19:00,24.9,23.7,25.00,NW,312,0.0,-999.0,95,-99.99,,,-99.99,dwt +perl,2013-01-10 13:19:00,
2013-01-10 05:24:00,24.9,23.7,25.00,NW,312,0.0,-999.0,95,-99.99,,,-99.99,dwt +perl,2013-01-10 13:24:00,
2013-01-10 05:29:00,25.0,23.8,25.00,NW,312,0.0,-999.0,95,-99.99,,,-99.99,dwt +perl,2013-01-10 13:29:00,
2013-01-10 05:34:00,24.5,23.3,25.00,NW,312,0.0,-999.0,95,-99.99,,,-99.99,dwt +perl,2013-01-10 13:34:00,
2013-01-10 05:39:00,24.3,23.1,25.00,NW,312,0.0,-999.0,95,-99.99,,,-99.99,dwt +perl,2013-01-10 13:39:00,
2013-01-10 05:44:00,24.4,23.2,25.01,NW,312,0.0,-999.0,95,-99.99,,,-99.99,dwt +perl,2013-01-10 13:44:00,
2013-01-10 05:49:00,24.6,23.4,25.00,NW,312,0.0,-999.0,95,-99.99,,,-99.99,dwt +perl,2013-01-10 13:49:00,
2013-01-10 05:54:00,24.8,23.6,25.00,NW,312,0.0,-999.0,95,-99.99,,,-99.99,dwt +perl,2013-01-10 13:54:00,
2013-01-10 05:59:00,24.9,23.7,25.00,NW,312,0.0,-999.0,95,-99.99,,,-99.99,dwt +perl,2013-01-10 13:59:00,
2013-01-10 06:04:00,24.8,23.6,25.00,NW,312,0.0,-999.0,95,-99.99,,,-99.99,dwt +perl,2013-01-10 14:04:00,
2013-01-10 06:09:00,24.7,23.5,25.00,NW,312,0.0,-999.0,95,-99.99,,,-99.99,dwt +perl,2013-01-10 14:09:00,
2013-01-10 06:14:00,24.7,23.5,25.01,NW,312,0.0,-999.0,95,-99.99,,,-99.99,dwt +perl,2013-01-10 14:14:00,
2013-01-10 06:19:00,24.5,23.3,25.01,NW,312,0.0,-999.0,95,-99.99,,,-99.99,dwt +perl,2013-01-10 14:19:00,
2013-01-10 06:24:00,24.4,23.2,25.01,NW,312,0.0,-999.0,95,-99.99,,,-99.99,dwt +perl,2013-01-10 14:24:00,
2013-01-10 06:29:00,24.3,23.1,25.01,NW,312,0.0,-999.0,95,-99.99,,,-99.99,dwt +perl,2013-01-10 14:29:00,
2013-01-10 06:34:00,24.2,23.0,25.02,NW,312,0.0,-999.0,95,-99.99,,,-99.99,dwt +perl,2013-01-10 14:34:00,
2013-01-10 06:39:00,24.2,23.0,25.02,NW,312,0.0,-999.0,95,-99.99,,,-99.99,dwt +perl,2013-01-10 14:39:00,
2013-01-10 06:44:00,23.6,22.4,25.02,NW,312,0.0,-999.0,95,-99.99,,,-99.99,dwt +perl,2013-01-10 14:44:00,
2013-01-10 06:49:00,23.7,22.5,25.02,NW,312,0.0,-999.0,95,-99.99,,,-99.99,dwt +perl,2013-01-10 14:49:00,
2013-01-10 06:54:00,23.7,22.5,25.02,NW,312,0.0,-999.0,95,-99.99,,,-99.99,dwt +perl,2013-01-10 14:54:00,
2013-01-10 06:59:00,23.8,22.6,25.03,NW,312,0.0,-999.0,95,-99.99,,,-99.99,dwt +perl,2013-01-10 14:59:00,
2013-01-10 07:04:00,23.9,22.7,25.03,NW,312,0.0,-999.0,95,-99.99,,,-99.99,dwt +perl,2013-01-10 15:04:00,
2013-01-10 07:09:00,23.9,22.7,25.03,NW,312,0.0,-999.0,95,-99.99,,,-99.99,dwt +perl,2013-01-10 15:09:00,
2013-01-10 07:14:00,23.9,22.7,25.03,NW,312,0.0,-999.0,95,-99.99,,,-99.99,dwt +perl,2013-01-10 15:14:00,
2013-01-10 07:19:00,23.8,22.6,25.03,NW,312,0.0,-999.0,95,-99.99,,,-99.99,dwt +perl,2013-01-10 15:19:00,
2013-01-10 07:24:00,23.7,22.5,25.03,NW,312,0.0,-999.0,95,-99.99,,,-99.99,dwt +perl,2013-01-10 15:24:00,
2013-01-10 07:29:00,23.7,22.5,25.03,NW,312,0.0,-999.0,95,-99.99,,,-99.99,dwt +perl,2013-01-10 15:29:00,
2013-01-10 07:34:00,23.8,22.6,25.03,NW,312,0.0,-999.0,95,-99.99,,,-99.99,dwt +perl,2013-01-10 15:34:00,
2013-01-10 07:39:00,23.9,22.7,25.04,NW,312,0.0,-999.0,95,-99.99,,,-99.99,dwt +perl,2013-01-10 15:39:00,
2013-01-10 07:44:00,23.9,22.7,25.03,NW,312,0.0,-999.0,95,-99.99,,,-99.99,dwt +perl,2013-01-10 15:44:00,
2013-01-10 07:49:00,23.7,22.5,25.03,NW,312,0.0,-999.0,95,-99.99,,,-99.99,dwt +perl,2013-01-10 15:49:00,
2013-01-10 07:59:00,23.6,22.4,25.05,NW,312,0.0,-999.0,95,-99.99,,,-99.99,dwt +perl,2013-01-10 15:59:00,
2013-01-10 08:04:00,23.7,22.5,25.05,NW,312,0.0,-999.0,95,-99.99,,,-99.99,dwt +perl,2013-01-10 16:04:00,
2013-01-10 08:09:00,23.7,22.5,25.05,NW,312,0.0,-999.0,95,-99.99,,,-99.99,dwt +perl,2013-01-10 16:09:00,
2013-01-10 08:14:00,23.7,22.5,25.05,NW,312,0.0,-999.0,95,-99.99,,,-99.99,dwt +perl,2013-01-10 16:14:00,
2013-01-10 08:19:00,23.8,22.6,25.05,NW,312,0.0,-999.0,95,-99.99,,,-99.99,dwt +perl,2013-01-10 16:19:00,
2013-01-10 08:24:00,23.6,22.4,25.05,NW,312,0.0,-999.0,95,-99.99,,,-99.99,dwt +perl,2013-01-10 16:24:00,
2013-01-10 08:29:00,23.7,22.5,25.05,NW,312,0.0,-999.0,95,-99.99,,,-99.99,dwt +perl,2013-01-10 16:29:00,
2013-01-10 08:39:00,24.0,22.8,25.05,NW,312,0.0,-999.0,95,-99.99,,,-99.99,dwt +perl,2013-01-10 16:39:00,
2013-01-10 08:44:00,24.0,22.8,25.05,NW,312,0.0,-999.0,95,-99.99,,,-99.99,dwt +perl,2013-01-10 16:44:00,
2013-01-10 08:49:00,24.0,22.8,25.05,NW,312,0.0,-999.0,95,-99.99,,,-99.99,dwt +perl,2013-01-10 16:49:00,
2013-01-10 08:54:00,24.0,22.8,25.06,NW,312,0.0,-999.0,95,-99.99,,,-99.99,dwt +perl,2013-01-10 16:54:00,
2013-01-10 08:59:00,24.1,22.9,25.05,NW,312,0.0,-999.0,95,-99.99,,,-99.99,dwt +perl,2013-01-10 16:59:00,
2013-01-10 09:04:00,24.3,23.1,25.05,NW,312,0.0,-999.0,95,-99.99,,,-99.99,dwt +perl,2013-01-10 17:04:00,
2013-01-10 09:09:00,24.3,23.1,25.05,NW,312,0.0,-999.0,95,-99.99,,,-99.99,dwt +perl,2013-01-10 17:09:00,
2013-01-10 09:14:00,24.4,23.2,25.05,NW,312,0.0,-999.0,95,-99.99,,,-99.99,dwt +perl,2013-01-10 17:14:00,
2013-01-10 09:19:00,24.4,23.2,25.06,NW,312,0.0,-999.0,95,-99.99,,,-99.99,dwt +perl,2013-01-10 17:19:00,
2013-01-10 09:24:00,24.6,23.4,25.06,NW,312,0.0,-999.0,95,-99.99,,,-99.99,dwt +perl,2013-01-10 17:24:00,
2013-01-10 09:29:00,24.6,23.4,25.06,NW,312,0.0,-999.0,95,-99.99,,,-99.99,dwt +perl,2013-01-10 17:29:00,
2013-01-10 09:34:00,24.7,23.5,25.07,NW,312,0.0,-999.0,95,-99.99,,,-99.99,dwt +perl,2013-01-10 17:34:00,
2013-01-10 09:39:00,24.7,23.5,25.06,NW,312,0.0,-999.0,95,-99.99,,,-99.99,dwt +perl,2013-01-10 17:39:00,
2013-01-10 09:44:00,24.7,23.5,25.06,NW,312,0.0,-999.0,95,-99.99,,,-99.99,dwt +perl,2013-01-10 17:44:00,
2013-01-10 09:49:00,24.8,23.6,25.07,NW,312,0.0,-999.0,95,-99.99,,,-99.99,dwt +perl,2013-01-10 17:49:00,
2013-01-10 09:54:00,24.9,23.7,25.07,NW,312,0.0,-999.0,95,-99.99,,,-99.99,dwt +perl,2013-01-10 17:54:00,
2013-01-10 09:59:00,24.8,23.6,25.07,NW,312,0.0,-999.0,95,-99.99,,,-99.99,dwt +perl,2013-01-10 17:59:00,
2013-01-10 10:04:00,24.7,23.5,25.07,NW,312,0.0,-999.0,95,-99.99,,,-99.99,dwt +perl,2013-01-10 18:04:00,
2013-01-10 10:09:00,24.5,23.3,25.07,NW,312,0.0,-999.0,95,-99.99,,,-99.99,dwt +perl,2013-01-10 18:09:00,
2013-01-10 10:14:00,24.4,23.2,25.07,NW,312,0.0,-999.0,95,-99.99,,,-99.99,dwt +perl,2013-01-10 18:14:00,
2013-01-10 10:19:00,24.5,23.3,25.07,NW,312,0.0,-999.0,95,-99.99,,,-99.99,dwt +perl,2013-01-10 18:19:00,
2013-01-10 10:24:00,24.6,23.4,25.07,NW,312,0.0,-999.0,95,-99.99,,,-99.99,dwt +perl,2013-01-10 18:24:00,
2013-01-10 10:29:00,24.7,23.5,25.07,NW,312,0.0,-999.0,95,-99.99,,,-99.99,dwt +perl,2013-01-10 18:29:00,
2013-01-10 10:34:00,24.7,23.5,25.07,NW,312,0.0,-999.0,95,-99.99,,,-99.99,dwt +perl,2013-01-10 18:34:00,
2013-01-10 10:39:00,24.8,23.6,25.08,NW,312,0.0,-999.0,95,-99.99,,,-99.99,dwt +perl,2013-01-10 18:39:00,
2013-01-10 10:44:00,25.0,23.8,25.07,NW,312,0.0,-999.0,95,-99.99,,,-99.99,dwt +perl,2013-01-10 18:44:00,
2013-01-10 10:49:00,25.2,24.2,25.07,NW,312,0.0,-999.0,96,-99.99,,,-99.99,dwt +perl,2013-01-10 18:49:00,
2013-01-10 10:54:00,25.2,24.2,25.07,NW,312,0.0,-999.0,96,-99.99,,,-99.99,dwt +perl,2013-01-10 18:54:00,
2013-01-10 10:59:00,25.2,24.2,25.07,NW,312,0.0,-999.0,96,-99.99,,,-99.99,dwt +perl,2013-01-10 18:59:00,
2013-01-10 11:04:00,25.2,24.2,25.07,NW,312,0.0,-999.0,96,-99.99,,,-99.99,dwt +perl,2013-01-10 19:04:00,
2013-01-10 11:09:00,25.0,23.8,25.07,NW,312,0.0,-999.0,95,-99.99,,,-99.99,dwt +perl,2013-01-10 19:09:00,
2013-01-10 11:14:00,24.5,23.3,25.08,NW,312,0.0,-999.0,95,-99.99,,,-99.99,dwt +perl,2013-01-10 19:14:00,
2013-01-10 11:19:00,24.4,23.2,25.07,NW,312,0.0,-999.0,95,-99.99,,,-99.99,dwt +perl,2013-01-10 19:19:00,
2013-01-10 11:24:00,24.6,23.4,25.07,NW,312,0.0,-999.0,95,-99.99,,,-99.99,dwt +perl,2013-01-10 19:24:00,
2013-01-10 11:29:00,24.8,23.6,25.07,NW,312,0.0,-999.0,95,-99.99,,,-99.99,dwt +perl,2013-01-10 19:29:00,
2013-01-10 11:34:00,25.1,24.1,25.07,NW,312,0.0,-999.0,96,-99.99,,,-99.99,dwt +perl,2013-01-10 19:34:00,
2013-01-10 11:39:00,25.1,24.1,25.07,NW,312,0.0,-999.0,96,-99.99,,,-99.99,dwt +perl,2013-01-10 19:39:00,
2013-01-10 11:44:00,25.0,23.8,25.07,NW,312,0.0,-999.0,95,-99.99,,,-99.99,dwt +perl,2013-01-10 19:44:00,
2013-01-10 11:49:00,24.8,23.6,25.07,NW,312,0.0,-999.0,95,-99.99,,,-99.99,dwt +perl,2013-01-10 19:49:00,
2013-01-10 11:54:00,24.9,23.7,25.07,NW,312,0.0,-999.0,95,-99.99,,,-99.99,dwt +perl,2013-01-10 19:54:00,
2013-01-10 11:59:00,25.2,24.2,25.06,NW,312,0.0,-999.0,96,-99.99,,,-99.99,dwt +perl,2013-01-10 19:59:00,
2013-01-10 12:09:00,25.5,24.5,25.06,NW,312,0.0,-999.0,96,-99.99,,,-99.99,dwt +perl,2013-01-10 20:09:00,
2013-01-10 12:19:00,24.7,23.5,25.06,NW,312,0.0,-999.0,95,-99.99,,,-99.99,dwt +perl,2013-01-10 20:19:00,
2013-01-10 12:24:00,24.3,23.1,25.06,NW,312,0.0,-999.0,95,-99.99,,,-99.99,dwt +perl,2013-01-10 20:24:00,
2013-01-10 12:29:00,24.4,23.2,25.06,NW,312,0.0,-999.0,95,-99.99,,,-99.99,dwt +perl,2013-01-10 20:29:00,
2013-01-10 12:34:00,24.7,23.5,25.06,NW,312,0.0,-999.0,95,-99.99,,,-99.99,dwt +perl,2013-01-10 20:34:00,
2013-01-10 12:39:00,25.1,23.9,25.06,NW,312,0.0,-999.0,95,-99.99,,,-99.99,dwt +perl,2013-01-10 20:39:00,
2013-01-10 12:44:00,25.1,24.1,25.06,NW,312,0.0,-999.0,96,-99.99,,,-99.99,dwt +perl,2013-01-10 20:44:00,
2013-01-10 12:49:00,25.0,23.8,25.06,NW,312,0.0,-999.0,95,-99.99,,,-99.99,dwt +perl,2013-01-10 20:49:00,
2013-01-10 12:54:00,24.8,23.6,25.07,NW,312,0.0,-999.0,95,-99.99,,,-99.99,dwt +perl,2013-01-10 20:54:00,
2013-01-10 12:59:00,24.9,23.7,25.06,NW,312,0.0,-999.0,95,-99.99,,,-99.99,dwt +perl,2013-01-10 20:59:00,
2013-01-10 13:04:00,25.0,23.8,25.06,NW,312,0.0,-999.0,95,-99.99,,,-99.99,dwt +perl,2013-01-10 21:04:00,
2013-01-10 13:09:00,24.9,23.7,25.07,NW,312,0.0,-999.0,95,-99.99,,,-99.99,dwt +perl,2013-01-10 21:09:00,
2013-01-10 13:14:00,25.0,23.8,25.07,NW,312,0.0,-999.0,95,-99.99,,,-99.99,dwt +perl,2013-01-10 21:14:00,
2013-01-10 13:19:00,25.1,24.1,25.07,NW,312,0.0,-999.0,96,-99.99,,,-99.99,dwt +perl,2013-01-10 21:19:00,
2013-01-10 13:24:00,24.9,23.7,25.05,NW,312,0.0,-999.0,95,-99.99,,,-99.99,dwt +perl,2013-01-10 21:24:00,
2013-01-10 13:29:00,24.6,23.4,25.06,NW,312,0.0,-999.0,95,-99.99,,,-99.99,dwt +perl,2013-01-10 21:29:00,
2013-01-10 13:34:00,24.4,23.2,25.06,NW,312,0.0,-999.0,95,-99.99,,,-99.99,dwt +perl,2013-01-10 21:34:00,
2013-01-10 13:44:00,24.3,23.1,25.07,NW,312,0.0,-999.0,95,-99.99,,,-99.99,dwt +perl,2013-01-10 21:44:00,
2013-01-10 13:49:00,24.3,23.1,25.07,NW,312,0.0,-999.0,95,-99.99,,,-99.99,dwt +perl,2013-01-10 21:49:00,
2013-01-10 13:54:00,24.4,23.2,25.07,NW,312,0.0,-999.0,95,-99.99,,,-99.99,dwt +perl,2013-01-10 21:54:00,
2013-01-10 13:59:00,24.4,23.2,25.07,NW,312,0.0,-999.0,95,-99.99,,,-99.99,dwt +perl,2013-01-10 21:59:00,
2013-01-10 14:04:00,24.4,23.2,25.07,NW,312,0.0,-999.0,95,-99.99,,,-99.99,dwt +perl,2013-01-10 22:04:00,
2013-01-10 14:09:00,24.4,23.2,25.08,NW,312,0.0,-999.0,95,-99.99,,,-99.99,dwt +perl,2013-01-10 22:09:00,
2013-01-10 14:14:00,24.2,23.0,25.08,NW,312,0.0,-999.0,95,-99.99,,,-99.99,dwt +perl,2013-01-10 22:14:00,
2013-01-10 14:19:00,24.0,22.8,25.08,NW,312,0.0,-999.0,95,-99.99,,,-99.99,dwt +perl,2013-01-10 22:19:00,
2013-01-10 14:24:00,24.0,22.8,25.08,NW,312,0.0,-999.0,95,-99.99,,,-99.99,dwt +perl,2013-01-10 22:24:00,
2013-01-10 14:29:00,24.1,22.9,25.08,NW,312,0.0,-999.0,95,-99.99,,,-99.99,dwt +perl,2013-01-10 22:29:00,
2013-01-10 14:34:00,24.1,22.9,25.08,NW,312,0.0,-999.0,95,-99.99,,,-99.99,dwt +perl,2013-01-10 22:34:00,
2013-01-10 14:39:00,24.2,23.0,25.08,NW,312,0.0,-999.0,95,-99.99,,,-99.99,dwt +perl,2013-01-10 22:39:00,
2013-01-10 14:44:00,24.3,23.1,25.08,NW,312,0.0,-999.0,95,-99.99,,,-99.99,dwt +perl,2013-01-10 22:44:00,
2013-01-10 14:49:00,24.4,23.2,25.09,NW,312,0.0,-999.0,95,-99.99,,,-99.99,dwt +perl,2013-01-10 22:49:00,
2013-01-10 14:54:00,24.5,23.3,25.08,NW,312,0.0,-999.0,95,-99.99,,,-99.99,dwt +perl,2013-01-10 22:54:00,
2013-01-10 14:59:00,24.7,23.5,25.09,NW,312,0.0,-999.0,95,-99.99,,,-99.99,dwt +perl,2013-01-10 22:59:00,
2013-01-10 15:04:00,24.8,23.6,25.08,NW,312,0.0,-999.0,95,-99.99,,,-99.99,dwt +perl,2013-01-10 23:04:00,
2013-01-10 15:09:00,24.8,23.6,25.09,NW,312,0.0,-999.0,95,-99.99,,,-99.99,dwt +perl,2013-01-10 23:09:00,
2013-01-10 15:14:00,24.8,23.8,25.09,NW,312,0.0,-999.0,96,-99.99,,,-99.99,dwt +perl,2013-01-10 23:14:00,
2013-01-10 15:19:00,24.7,23.7,25.10,NW,312,0.0,-999.0,96,-99.99,,,-99.99,dwt +perl,2013-01-10 23:19:00,
2013-01-10 15:24:00,24.7,23.7,25.10,NW,312,0.0,-999.0,96,-99.99,,,-99.99,dwt +perl,2013-01-10 23:24:00,
2013-01-10 15:29:00,24.7,23.7,25.10,NW,312,0.0,-999.0,96,-99.99,,,-99.99,dwt +perl,2013-01-10 23:29:00,
2013-01-10 15:34:00,24.8,23.6,25.10,NW,312,0.0,-999.0,95,-99.99,,,-99.99,dwt +perl,2013-01-10 23:34:00,
2013-01-10 15:39:00,24.8,23.6,25.11,NW,312,0.0,-999.0,95,-99.99,,,-99.99,dwt +perl,2013-01-10 23:39:00,
2013-01-10 15:44:00,24.7,23.7,25.10,NW,312,0.0,-999.0,96,-99.99,,,-99.99,dwt +perl,2013-01-10 23:44:00,
2013-01-10 15:49:00,24.7,23.7,25.10,NW,312,0.0,-999.0,96,-99.99,,,-99.99,dwt +perl,2013-01-10 23:49:00,
2013-01-10 15:54:00,24.8,23.8,25.10,NW,312,0.0,-999.0,96,-99.99,,,-99.99,dwt +perl,2013-01-10 23:54:00,
2013-01-10 15:59:00,24.7,23.7,25.11,NW,312,0.0,-999.0,96,-99.99,,,-99.99,dwt +perl,2013-01-10 23:59:00,
2013-01-10 16:04:00,24.7,23.7,25.11,NW,312,0.0,-999.0,96,-99.99,,,-99.99,dwt +perl,2013-01-11 00:04:00,
2013-01-10 16:09:00,24.7,23.7,25.11,NW,312,0.0,-999.0,96,-99.99,,,-99.99,dwt +perl,2013-01-11 00:09:00,
2013-01-10 16:14:00,24.7,23.7,25.11,NW,312,0.0,-999.0,96,-99.99,,,-99.99,dwt +perl,2013-01-11 00:14:00,
2013-01-10 16:19:00,24.6,23.4,25.11,NW,312,0.0,-999.0,95,-99.99,,,-99.99,dwt +perl,2013-01-11 00:19:00,
2013-01-10 16:24:00,24.5,23.3,25.11,NW,312,0.0,-999.0,95,-99.99,,,-99.99,dwt +perl,2013-01-11 00:24:00,
2013-01-10 16:29:00,24.6,23.6,25.11,NW,312,0.0,-999.0,96,-99.99,,,-99.99,dwt +perl,2013-01-11 00:29:00,
2013-01-10 16:34:00,24.8,23.8,25.11,NW,312,0.0,-999.0,96,-99.99,,,-99.99,dwt +perl,2013-01-11 00:34:00,
2013-01-10 16:39:00,24.8,23.8,25.11,NW,312,0.0,-999.0,96,-99.99,,,-99.99,dwt +perl,2013-01-11 00:39:00,
2013-01-10 16:44:00,24.9,23.9,25.11,NW,312,0.0,-999.0,96,-99.99,,,-99.99,dwt +perl,2013-01-11 00:44:00,
2013-01-10 16:49:00,24.9,23.9,25.11,NW,312,0.0,-999.0,96,-99.99,,,-99.99,dwt +perl,2013-01-11 00:49:00,
2013-01-10 16:54:00,24.8,23.6,25.11,NW,312,0.0,-999.0,95,-99.99,,,-99.99,dwt +perl,2013-01-11 00:54:00,
2013-01-10 16:59:00,24.7,23.7,25.11,NW,312,0.0,-999.0,96,-99.99,,,-99.99,dwt +perl,2013-01-11 00:59:00,
2013-01-10 17:09:00,24.5,23.5,25.11,NW,312,0.0,-999.0,96,-99.99,,,-99.99,dwt +perl,2013-01-11 01:09:00,
2013-01-10 17:14:00,24.5,23.5,25.12,NW,312,0.0,-999.0,96,-99.99,,,-99.99,dwt +perl,2013-01-11 01:14:00,
2013-01-10 17:19:00,24.5,23.5,25.12,NW,312,0.0,-999.0,96,-99.99,,,-99.99,dwt +perl,2013-01-11 01:19:00,
2013-01-10 17:24:00,24.4,23.2,25.12,NW,312,0.0,-999.0,95,-99.99,,,-99.99,dwt +perl,2013-01-11 01:24:00,
2013-01-10 17:29:00,24.4,23.2,25.12,NW,312,0.0,-999.0,95,-99.99,,,-99.99,dwt +perl,2013-01-11 01:29:00,
2013-01-10 17:34:00,24.4,23.2,25.12,NW,312,0.0,-999.0,95,-99.99,,,-99.99,dwt +perl,2013-01-11 01:34:00,
2013-01-10 17:39:00,24.4,23.2,25.13,NW,312,0.0,-999.0,95,-99.99,,,-99.99,dwt +perl,2013-01-11 01:39:00,
2013-01-10 17:44:00,24.4,23.2,25.12,NW,312,0.0,-999.0,95,-99.99,,,-99.99,dwt +perl,2013-01-11 01:44:00,
2013-01-10 17:49:00,24.3,23.1,25.13,NW,312,0.0,-999.0,95,-99.99,,,-99.99,dwt +perl,2013-01-11 01:49:00,
2013-01-10 17:54:00,24.3,23.1,25.13,NW,312,0.0,-999.0,95,-99.99,,,-99.99,dwt +perl,2013-01-11 01:54:00,
2013-01-10 17:59:00,24.3,23.1,25.14,NW,312,0.0,-999.0,95,-99.99,,,-99.99,dwt +perl,2013-01-11 01:59:00,
2013-01-10 18:04:00,24.4,23.2,25.13,NW,312,0.0,-999.0,95,-99.99,,,-99.99,dwt +perl,2013-01-11 02:04:00,
2013-01-10 18:09:00,24.4,23.2,25.13,NW,312,0.0,-999.0,95,-99.99,,,-99.99,dwt +perl,2013-01-11 02:09:00,
2013-01-10 18:14:00,24.4,23.2,25.13,NW,312,0.0,-999.0,95,-99.99,,,-99.99,dwt +perl,2013-01-11 02:14:00,
2013-01-10 18:19:00,24.4,23.2,25.14,NW,312,0.0,-999.0,95,-99.99,,,-99.99,dwt +perl,2013-01-11 02:19:00,
2013-01-10 18:24:00,24.5,23.5,25.15,NW,312,0.0,-999.0,96,-99.99,,,-99.99,dwt +perl,2013-01-11 02:24:00,
2013-01-10 18:29:00,24.5,23.5,25.14,NW,312,0.0,-999.0,96,-99.99,,,-99.99,dwt +perl,2013-01-11 02:29:00,
2013-01-10 18:34:00,24.5,23.5,25.14,NW,312,0.0,-999.0,96,-99.99,,,-99.99,dwt +perl,2013-01-11 02:34:00,
2013-01-10 18:39:00,24.5,23.5,25.15,NW,312,0.0,-999.0,96,-99.99,,,-99.99,dwt +perl,2013-01-11 02:39:00,
2013-01-10 18:44:00,24.6,23.4,25.16,NW,312,0.0,-999.0,95,-99.99,,,-99.99,dwt +perl,2013-01-11 02:44:00,
2013-01-10 18:49:00,24.8,23.8,25.16,NW,312,0.0,-999.0,96,-99.99,,,-99.99,dwt +perl,2013-01-11 02:49:00,
2013-01-10 18:59:00,24.9,23.9,25.16,NW,312,0.0,-999.0,96,-99.99,,,-99.99,dwt +perl,2013-01-11 02:59:00,
2013-01-10 19:04:00,24.9,23.9,25.16,NW,312,0.0,-999.0,96,-99.99,,,-99.99,dwt +perl,2013-01-11 03:04:00,
2013-01-10 19:09:00,24.9,23.9,25.16,NW,312,0.0,-999.0,96,-99.99,,,-99.99,dwt +perl,2013-01-11 03:09:00,
2013-01-10 19:14:00,24.8,23.8,25.15,NW,312,0.0,-999.0,96,-99.99,,,-99.99,dwt +perl,2013-01-11 03:14:00,
2013-01-10 19:19:00,24.7,23.7,25.17,NW,312,0.0,-999.0,96,-99.99,,,-99.99,dwt +perl,2013-01-11 03:19:00,
2013-01-10 19:24:00,24.7,23.7,25.16,NW,312,0.0,-999.0,96,-99.99,,,-99.99,dwt +perl,2013-01-11 03:24:00,
2013-01-10 19:29:00,24.5,23.5,25.17,NW,312,0.0,-999.0,96,-99.99,,,-99.99,dwt +perl,2013-01-11 03:29:00,
2013-01-10 19:34:00,24.5,23.5,25.17,NW,312,0.0,-999.0,96,-99.99,,,-99.99,dwt +perl,2013-01-11 03:34:00,
2013-01-10 19:39:00,24.5,23.5,25.18,NW,312,0.0,-999.0,96,-99.99,,,-99.99,dwt +perl,2013-01-11 03:39:00,
2013-01-10 19:44:00,24.6,23.6,25.18,NW,312,0.0,-999.0,96,-99.99,,,-99.99,dwt +perl,2013-01-11 03:44:00,
2013-01-10 19:49:00,24.6,23.4,25.18,NW,312,0.0,-999.0,95,-99.99,,,-99.99,dwt +perl,2013-01-11 03:49:00,
2013-01-10 19:54:00,24.5,23.5,25.18,NW,312,0.0,-999.0,96,-99.99,,,-99.99,dwt +perl,2013-01-11 03:54:00,
2013-01-10 19:59:00,24.6,23.6,25.18,NW,312,0.0,-999.0,96,-99.99,,,-99.99,dwt +perl,2013-01-11 03:59:00,
2013-01-10 20:04:00,24.7,23.5,25.19,NW,312,0.0,-999.0,95,-99.99,,,-99.99,dwt +perl,2013-01-11 04:04:00,
2013-01-10 20:09:00,24.8,23.8,25.19,NW,312,0.0,-999.0,96,-99.99,,,-99.99,dwt +perl,2013-01-11 04:09:00,
2013-01-10 20:14:00,24.8,23.8,25.19,NW,312,0.0,-999.0,96,-99.99,,,-99.99,dwt +perl,2013-01-11 04:14:00,
2013-01-10 20:19:00,25.0,24.0,25.19,NW,312,0.0,-999.0,96,-99.99,,,-99.99,dwt +perl,2013-01-11 04:19:00,
2013-01-10 20:24:00,24.9,23.9,25.19,NW,312,0.0,-999.0,96,-99.99,,,-99.99,dwt +perl,2013-01-11 04:24:00,
2013-01-10 20:29:00,24.8,23.8,25.19,NW,312,0.0,-999.0,96,-99.99,,,-99.99,dwt +perl,2013-01-11 04:29:00,
2013-01-10 20:34:00,24.7,23.7,25.20,NW,312,0.0,-999.0,96,-99.99,,,-99.99,dwt +perl,2013-01-11 04:34:00,
2013-01-10 20:39:00,24.7,23.5,25.20,NW,312,0.0,-999.0,95,-99.99,,,-99.99,dwt +perl,2013-01-11 04:39:00,
2013-01-10 20:44:00,24.8,23.8,25.20,NW,312,0.0,-999.0,96,-99.99,,,-99.99,dwt +perl,2013-01-11 04:44:00,
2013-01-10 20:49:00,24.8,23.8,25.20,NW,312,0.0,-999.0,96,-99.99,,,-99.99,dwt +perl,2013-01-11 04:49:00,
2013-01-10 20:54:00,24.8,23.8,25.20,NW,312,0.0,-999.0,96,-99.99,,,-99.99,dwt +perl,2013-01-11 04:54:00,
2013-01-10 20:59:00,24.7,23.7,25.19,NW,312,0.0,-999.0,96,-99.99,,,-99.99,dwt +perl,2013-01-11 04:59:00,
2013-01-10 21:04:00,24.7,23.5,25.20,NW,312,0.0,-999.0,95,-99.99,,,-99.99,dwt +perl,2013-01-11 05:04:00,
2013-01-10 21:09:00,24.7,23.5,25.20,NW,312,0.0,-999.0,95,-99.99,,,-99.99,dwt +perl,2013-01-11 05:09:00,
2013-01-10 21:14:00,24.6,23.6,25.20,NW,312,0.0,-999.0,96,-99.99,,,-99.99,dwt +perl,2013-01-11 05:14:00,
2013-01-10 21:19:00,24.5,23.5,25.20,NW,312,0.0,-999.0,96,-99.99,,,-99.99,dwt +perl,2013-01-11 05:19:00,
2013-01-10 21:24:00,24.5,23.5,25.19,NW,312,0.0,-999.0,96,-99.99,,,-99.99,dwt +perl,2013-01-11 05:24:00,
2013-01-10 21:29:00,24.4,23.2,25.20,NW,312,0.0,-999.0,95,-99.99,,,-99.99,dwt +perl,2013-01-11 05:29:00,
2013-01-10 21:34:00,24.3,23.1,25.19,NW,312,0.0,-999.0,95,-99.99,,,-99.99,dwt +perl,2013-01-11 05:34:00,
2013-01-10 21:39:00,24.3,23.1,25.20,NW,312,0.0,-999.0,95,-99.99,,,-99.99,dwt +perl,2013-01-11 05:39:00,
2013-01-10 21:44:00,24.3,23.1,25.20,NW,312,0.0,-999.0,95,-99.99,,,-99.99,dwt +perl,2013-01-11 05:44:00,
2013-01-10 21:49:00,24.4,23.2,25.20,NW,312,0.0,-999.0,95,-99.99,,,-99.99,dwt +perl,2013-01-11 05:49:00,
2013-01-10 21:54:00,24.4,23.2,25.20,NW,312,0.0,-999.0,95,-99.99,,,-99.99,dwt +perl,2013-01-11 05:54:00,
2013-01-10 21:59:00,24.4,23.2,25.20,NW,312,0.0,-999.0,95,-99.99,,,-99.99,dwt +perl,2013-01-11 05:59:00,
2013-01-10 22:04:00,24.4,23.2,25.20,NW,312,0.0,-999.0,95,-99.99,,,-99.99,dwt +perl,2013-01-11 06:04:00,
2013-01-10 22:09:00,24.3,23.1,25.20,NW,312,0.0,-999.0,95,-99.99,,,-99.99,dwt +perl,2013-01-11 06:09:00,
2013-01-10 22:14:00,24.3,23.1,25.20,NW,312,0.0,-999.0,95,-99.99,,,-99.99,dwt +perl,2013-01-11 06:14:00,
2013-01-10 22:19:00,24.3,23.1,25.20,NW,312,0.0,-999.0,95,-99.99,,,-99.99,dwt +perl,2013-01-11 06:19:00,
2013-01-10 22:24:00,24.2,23.0,25.21,NW,312,0.0,-999.0,95,-99.99,,,-99.99,dwt +perl,2013-01-11 06:24:00,
2013-01-10 22:29:00,24.3,23.1,25.21,NW,312,0.0,-999.0,95,-99.99,,,-99.99,dwt +perl,2013-01-11 06:29:00,
2013-01-10 22:34:00,24.3,23.1,25.21,NW,312,0.0,-999.0,95,-99.99,,,-99.99,dwt +perl,2013-01-11 06:34:00,
2013-01-10 22:39:00,24.4,23.2,25.21,NW,312,0.0,-999.0,95,-99.99,,,-99.99,dwt +perl,2013-01-11 06:39:00,
2013-01-10 22:44:00,24.4,23.2,25.21,NW,312,0.0,-999.0,95,-99.99,,,-99.99,dwt +perl,2013-01-11 06:44:00,
2013-01-10 22:49:00,24.4,23.2,25.21,NW,312,0.0,-999.0,95,-99.99,,,-99.99,dwt +perl,2013-01-11 06:49:00,
2013-01-10 22:54:00,24.5,23.3,25.21,NW,312,0.0,-999.0,95,-99.99,,,-99.99,dwt +perl,2013-01-11 06:54:00,
2013-01-10 22:59:00,24.4,23.2,25.21,NW,312,0.0,-999.0,95,-99.99,,,-99.99,dwt +perl,2013-01-11 06:59:00,
2013-01-10 23:04:00,24.5,23.3,25.21,NW,312,0.0,-999.0,95,-99.99,,,-99.99,dwt +perl,2013-01-11 07:04:00,
2013-01-10 23:09:00,24.5,23.3,25.21,NW,312,0.0,-999.0,95,-99.99,,,-99.99,dwt +perl,2013-01-11 07:09:00,
2013-01-10 23:14:00,24.5,23.3,25.21,NW,312,0.0,-999.0,95,-99.99,,,-99.99,dwt +perl,2013-01-11 07:14:00,
2013-01-10 23:19:00,24.5,23.3,25.21,NW,312,0.0,-999.0,95,-99.99,,,-99.99,dwt +perl,2013-01-11 07:19:00,
2013-01-10 23:24:00,24.5,23.3,25.20,NW,312,0.0,-999.0,95,-99.99,,,-99.99,dwt +perl,2013-01-11 07:24:00,
2013-01-10 23:29:00,24.5,23.3,25.21,NW,312,0.0,-999.0,95,-99.99,,,-99.99,dwt +perl,2013-01-11 07:29:00,
2013-01-10 23:34:00,24.4,23.2,25.20,NW,312,0.0,-999.0,95,-99.99,,,-99.99,dwt +perl,2013-01-11 07:34:00,
2013-01-10 23:39:00,24.3,23.1,25.20,NW,312,0.0,-999.0,95,-99.99,,,-99.99,dwt +perl,2013-01-11 07:39:00,
2013-01-10 23:44:00,24.2,23.0,25.20,NW,312,0.0,-999.0,95,-99.99,,,-99.99,dwt +perl,2013-01-11 07:44:00,
2013-01-10 23:49:00,24.3,23.1,25.21,NW,312,0.0,-999.0,95,-99.99,,,-99.99,dwt +perl,2013-01-11 07:49:00,
2013-01-10 23:54:00,24.3,23.3,25.20,NW,312,0.0,-999.0,96,-99.99,,,-99.99,dwt +perl,2013-01-11 07:54:00,
2013-01-10 23:59:00,24.2,23.0,25.20,NW,312,0.0,-999.0,95,-99.99,,,-99.99,dwt +perl,2013-01-11 07:59:00,